D. Carlos I — CTHJ — position and weather

sailwx.info

Track history (hours):
 
Tides and Currents Weather Stations Pressure Air Temp Water Temp Dewpoint Dewpoint Depression Visibility Wind Speed Wind Dir Waves Ship Positions

Oceanographic research ship D. Carlos I (Portugal)

Detailed information on ship capabilities available from University of Delaware's Ocean Information Center.

Last reported at 2019-Apr-23 07:47 UTC. Time now 2019-Apr-25 09:57 UTC.
Position N 37°07' W 008°32'.

Length 69 m; draft 5.6 m.

MMSI: 263144000.

Date/timePositionNaut miles runAvg speedWind from/ knotsBaromVisibWave heightAir tempDewpointWater temp
2019-Apr-23 07:47N 37°07' W 008°32'0 0.0
2019-Apr-23 07:29N 37°07' W 008°32'1 1.7
2019-Apr-23 07:01N 37°07' W 008°32'1 1.0
2019-Apr-23 06:30N 37°07' W 008°31'0 0.6
2019-Apr-23 06:01N 37°07' W 008°32'1 1.7
2019-Apr-23 05:30N 37°07' W 008°32'2 4.6
2019-Apr-23 05:00N 37°04' W 008°33'3 5.9
2019-Apr-23 04:31N 37°02' W 008°34'4 8.8
2019-Apr-23 04:01N 36°58' W 008°37'5 9.7
2019-Apr-23 03:31N 36°57' W 008°43'5 9.7
2019-Apr-23 03:01N 36°57' W 008°49'4 2.2
2019-Apr-23 01:09N 36°55' W 008°54'10 5.0
2019-Apr-22 23:09N 37°00' W 008°44'1 8.3
2019-Apr-22 23:00N 37°01' W 008°42'4 8.7
2019-Apr-22 22:30N 37°02' W 008°37'5 8.2
2019-Apr-22 21:52N 37°06' W 008°32'2 5.0
2019-Apr-22 21:30N 37°07' W 008°32'0 0.1
2019-Apr-22 20:48N 37°07' W 008°32'0 0.0
2019-Apr-22 20:24N 37°07' W 008°32'0 0.0
2019-Apr-22 20:00N 37°07' W 008°32'0 0.0
2019-Apr-22 19:30N 37°07' W 008°32'0 0.0
2019-Apr-22 07:57N 37°07' W 008°32'0 0.0
2019-Apr-22 07:31N 37°07' W 008°32'1 2.0
2019-Apr-22 07:00N 37°06' W 008°32'20 8.8
2019-Apr-22 04:46N 36°51' W 008°48'1 2.8
2019-Apr-22 04:14N 36°53' W 008°48'4 4.3
2019-Apr-22 03:18N 36°57' W 008°48'3 8.5
2019-Apr-22 02:57N 36°60' W 008°48'2 5.5
2019-Apr-22 02:30N 36°59' W 008°51'2 3.1
2019-Apr-22 02:00N 36°58' W 008°51'2 3.6
2019-Apr-22 01:30N 36°56' W 008°51'3 5.9
2019-Apr-22 01:01N 36°53' W 008°51'4 7.4
2019-Apr-22 00:29N 36°52' W 008°56'7 4.9
2019-Apr-21 23:09N 36°59' W 008°57'0 1.1
2019-Apr-21 23:00N 36°59' W 008°57'10 7.6
2019-Apr-21 21:43N 36°57' W 008°45'0 1.1
2019-Apr-21 21:30N 36°57' W 008°45'3 5.3
2019-Apr-21 21:00N 36°55' W 008°45'1 2.6
2019-Apr-21 20:31N 36°53' W 008°45'1 2.4
2019-Apr-21 19:57N 36°52' W 008°45'2 5.2
2019-Apr-21 19:30N 36°51' W 008°42'1 2.3
2019-Apr-21 18:59N 36°52' W 008°42'4 5.8
2019-Apr-21 18:14N 36°57' W 008°42'1 3.4
2019-Apr-21 18:00N 36°57' W 008°42'2 5.0
2019-Apr-21 17:31N 36°58' W 008°39'1 2.5
2019-Apr-21 17:01N 36°57' W 008°39'2 3.9
2019-Apr-21 16:31N 36°55' W 008°39'3 5.1
2019-Apr-21 16:01N 36°52' W 008°39'1 1.3
2019-Apr-21 15:31N 36°52' W 008°39'2 4.4
2019-Apr-21 14:58N 36°51' W 008°36'1 2.7
2019-Apr-21 14:27N 36°52' W 008°36'3 6.7
2019-Apr-21 14:00N 36°55' W 008°36'2 4.0
2019-Apr-21 13:30N 36°57' W 008°36'2 4.1
2019-Apr-21 13:01N 36°59' W 008°36'2 4.4
2019-Apr-21 12:31N 37°02' W 008°36'2 4.8
2019-Apr-21 12:01N 37°01' W 008°39'3 5.1
2019-Apr-21 11:30N 37°01' W 008°42'2 4.5
2019-Apr-21 11:00N 37°00' W 008°45'1 2.8
2019-Apr-21 10:31N 37°01' W 008°46'0 1.0
2019-Apr-21 10:00N 37°01' W 008°46'2 3.7
2019-Apr-21 09:28N 37°03' W 008°45'1 1.6
2019-Apr-21 09:01N 37°03' W 008°45'2 4.3
2019-Apr-21 08:31N 37°04' W 008°42'2 3.5
2019-Apr-21 08:00N 37°04' W 008°40'1 3.0
2019-Apr-21 07:31N 37°04' W 008°38'2 3.3
2019-Apr-21 07:01N 37°05' W 008°36'2 4.8
2019-Apr-21 06:30N 37°04' W 008°33'2 3.2
2019-Apr-21 06:01N 37°03' W 008°33'1 3.0
2019-Apr-21 05:31N 37°01' W 008°33'3 6.0
2019-Apr-21 05:00N 36°58' W 008°33'2 4.8
2019-Apr-21 04:31N 36°56' W 008°33'1 2.5
2019-Apr-21 04:01N 36°55' W 008°33'2 4.9
2019-Apr-21 03:30N 36°52' W 008°33'3 5.7
2019-Apr-21 03:00N 36°50' W 008°30'3 4.9
2019-Apr-21 02:23N 36°54' W 008°30'3 4.6
2019-Apr-21 01:45N 36°56' W 008°30'1 3.0
2019-Apr-21 01:30N 36°57' W 008°30'3 6.7
2019-Apr-21 01:00N 37°00' W 008°30'3 5.0
2019-Apr-21 00:30N 37°03' W 008°30'2 3.1
2019-Apr-21 00:01N 37°03' W 008°28'2 3.2
2019-Apr-20 23:31N 37°02' W 008°27'3 4.9
2019-Apr-20 22:59N 36°59' W 008°27'3 6.3
2019-Apr-20 22:31N 36°56' W 008°26'1 2.8
2019-Apr-20 22:00N 36°55' W 008°27'2 3.7
2019-Apr-20 21:24N 36°53' W 008°27'2 6.1
2019-Apr-20 21:00N 36°50' W 008°27'1 2.8
2019-Apr-20 20:31N 36°50' W 008°25'5 3.4
2019-Apr-20 18:57N 36°55' W 008°23'3 5.6
2019-Apr-20 18:24N 36°58' W 008°24'1 2.9
2019-Apr-20 18:00N 36°59' W 008°24'2 5.0
2019-Apr-20 17:30N 37°02' W 008°23'3 5.5
2019-Apr-20 17:00N 37°01' W 008°20'2 4.0
2019-Apr-20 16:30N 36°59' W 008°20'1 3.0
2019-Apr-20 16:00N 36°57' W 008°20'3 5.3
2019-Apr-20 15:31N 36°54' W 008°20'3 5.3
2019-Apr-20 15:00N 36°52' W 008°20'2 3.1
2019-Apr-20 14:27N 36°50' W 008°20'1 1.5
2019-Apr-20 13:59N 36°49' W 008°20'3 3.0
2019-Apr-20 12:56N 36°52' W 008°17'2 3.6
2019-Apr-20 12:28N 36°53' W 008°17'2 3.8
2019-Apr-20 11:59N 36°55' W 008°17'3 6.2
2019-Apr-20 11:31N 36°58' W 008°17'2 4.6
2019-Apr-20 11:01N 37°00' W 008°17'1 2.8
2019-Apr-20 10:30N 37°01' W 008°16'2 3.7
2019-Apr-20 10:00N 37°01' W 008°14'3 5.6
2019-Apr-20 09:30N 36°58' W 008°14'2 4.9
2019-Apr-20 09:01N 36°56' W 008°14'1 2.0
2019-Apr-20 08:31N 36°55' W 008°14'3 6.2
2019-Apr-20 08:00N 36°52' W 008°14'1 2.1
2019-Apr-20 07:30N 36°51' W 008°14'2 3.4
2019-Apr-20 06:59N 36°49' W 008°14'3 2.8
2019-Apr-20 05:57N 36°51' W 008°11'2 4.1
2019-Apr-20 05:30N 36°53' W 008°11'2 4.2
2019-Apr-20 05:00N 36°55' W 008°11'3 5.3
2019-Apr-20 04:29N 36°58' W 008°10'3 6.8
2019-Apr-20 04:00N 37°01' W 008°10'2 4.0
2019-Apr-20 03:30N 37°00' W 008°08'3 4.5
2019-Apr-20 02:45N 36°57' W 008°07'0 1.1
2019-Apr-20 02:30N 36°57' W 008°07'3 6.0
2019-Apr-20 02:00N 36°54' W 008°07'1 2.1
2019-Apr-20 01:29N 36°53' W 008°06'2 1.5
2019-Apr-20 00:16N 36°52' W 008°07'2 6.9
2019-Apr-19 23:57N 36°49' W 008°07'0 0.1
2019-Apr-19 23:30N 36°49' W 008°07'3 3.6
2019-Apr-19 22:43N 36°51' W 008°04'1 6.2
2019-Apr-19 22:29N 36°51' W 008°02'1 1.7
2019-Apr-19 21:53N 36°51' W 008°01'5 3.5
2019-Apr-19 20:23N 36°55' W 008°04'3 1.4
2019-Apr-19 18:01N 36°59' W 008°03'0 0.5
2019-Apr-19 17:59N 36°59' W 008°03'20 0.6
2019-Apr-18 09:39N 37°04' W 008°27'1 9.2
2019-Apr-18 09:30N 37°04' W 008°29'3 5.8
2019-Apr-18 08:58N 37°07' W 008°32'1 1.0
2019-Apr-18 08:25N 37°07' W 008°32'  
2019-Apr-14 13:57N 36°37' W 008°04'120 4.3
2019-Apr-13 09:54N 38°14' W 009°34'2 5.3
2019-Apr-13 09:29N 38°14' W 009°36'0 0.7
2019-Apr-13 08:56N 38°14' W 009°36'1 1.3
2019-Apr-13 08:30N 38°14' W 009°35'1 1.5
2019-Apr-13 07:52N 38°13' W 009°35'  
Track history (hours):
 
Tides and Currents Weather Stations Pressure Air Temp Water Temp Dewpoint Dewpoint Depression Visibility Wind Speed Wind Dir Waves Ship Positions

Oceanographic research ship D. Carlos I (Portugal)

Detailed information on ship capabilities available from University of Delaware's Ocean Information Center.

Last reported at 2019-Apr-23 07:47 UTC. Time now 2019-Apr-25 09:57 UTC.
Position N 37°07' W 008°32'.

Length 69 m; draft 5.6 m.

MMSI: 263144000.

Date/timePositionNaut miles runAvg speedWind from/ knotsBaromVisibWave heightAir tempDewpointWater temp
2019-Apr-23 07:47N 37°07' W 008°32'0 0.0
2019-Apr-23 07:29N 37°07' W 008°32'1 1.7
2019-Apr-23 07:01N 37°07' W 008°32'1 1.0
2019-Apr-23 06:30N 37°07' W 008°31'0 0.6
2019-Apr-23 06:01N 37°07' W 008°32'1 1.7
2019-Apr-23 05:30N 37°07' W 008°32'2 4.6
2019-Apr-23 05:00N 37°04' W 008°33'3 5.9
2019-Apr-23 04:31N 37°02' W 008°34'4 8.8
2019-Apr-23 04:01N 36°58' W 008°37'5 9.7
2019-Apr-23 03:31N 36°57' W 008°43'5 9.7
2019-Apr-23 03:01N 36°57' W 008°49'4 2.2
2019-Apr-23 01:09N 36°55' W 008°54'10 5.0
2019-Apr-22 23:09N 37°00' W 008°44'1 8.3
2019-Apr-22 23:00N 37°01' W 008°42'4 8.7
2019-Apr-22 22:30N 37°02' W 008°37'5 8.2
2019-Apr-22 21:52N 37°06' W 008°32'2 5.0
2019-Apr-22 21:30N 37°07' W 008°32'0 0.1
2019-Apr-22 20:48N 37°07' W 008°32'0 0.0
2019-Apr-22 20:24N 37°07' W 008°32'0 0.0
2019-Apr-22 20:00N 37°07' W 008°32'0 0.0
2019-Apr-22 19:30N 37°07' W 008°32'0 0.0
2019-Apr-22 07:57N 37°07' W 008°32'0 0.0
2019-Apr-22 07:31N 37°07' W 008°32'1 2.0
2019-Apr-22 07:00N 37°06' W 008°32'20 8.8
2019-Apr-22 04:46N 36°51' W 008°48'1 2.8
2019-Apr-22 04:14N 36°53' W 008°48'4 4.3
2019-Apr-22 03:18N 36°57' W 008°48'3 8.5
2019-Apr-22 02:57N 36°60' W 008°48'2 5.5
2019-Apr-22 02:30N 36°59' W 008°51'2 3.1
2019-Apr-22 02:00N 36°58' W 008°51'2 3.6
2019-Apr-22 01:30N 36°56' W 008°51'3 5.9
2019-Apr-22 01:01N 36°53' W 008°51'4 7.4
2019-Apr-22 00:29N 36°52' W 008°56'7 4.9
2019-Apr-21 23:09N 36°59' W 008°57'0 1.1
2019-Apr-21 23:00N 36°59' W 008°57'10 7.6
2019-Apr-21 21:43N 36°57' W 008°45'0 1.1
2019-Apr-21 21:30N 36°57' W 008°45'3 5.3
2019-Apr-21 21:00N 36°55' W 008°45'1 2.6
2019-Apr-21 20:31N 36°53' W 008°45'1 2.4
2019-Apr-21 19:57N 36°52' W 008°45'2 5.2
2019-Apr-21 19:30N 36°51' W 008°42'1 2.3
2019-Apr-21 18:59N 36°52' W 008°42'4 5.8
2019-Apr-21 18:14N 36°57' W 008°42'1 3.4
2019-Apr-21 18:00N 36°57' W 008°42'2 5.0
2019-Apr-21 17:31N 36°58' W 008°39'1 2.5
2019-Apr-21 17:01N 36°57' W 008°39'2 3.9
2019-Apr-21 16:31N 36°55' W 008°39'3 5.1
2019-Apr-21 16:01N 36°52' W 008°39'1 1.3
2019-Apr-21 15:31N 36°52' W 008°39'2 4.4
2019-Apr-21 14:58N 36°51' W 008°36'1 2.7
2019-Apr-21 14:27N 36°52' W 008°36'3 6.7
2019-Apr-21 14:00N 36°55' W 008°36'2 4.0
2019-Apr-21 13:30N 36°57' W 008°36'2 4.1
2019-Apr-21 13:01N 36°59' W 008°36'2 4.4
2019-Apr-21 12:31N 37°02' W 008°36'2 4.8
2019-Apr-21 12:01N 37°01' W 008°39'3 5.1
2019-Apr-21 11:30N 37°01' W 008°42'2 4.5
2019-Apr-21 11:00N 37°00' W 008°45'1 2.8
2019-Apr-21 10:31N 37°01' W 008°46'0 1.0
2019-Apr-21 10:00N 37°01' W 008°46'2 3.7
2019-Apr-21 09:28N 37°03' W 008°45'1 1.6
2019-Apr-21 09:01N 37°03' W 008°45'2 4.3
2019-Apr-21 08:31N 37°04' W 008°42'2 3.5
2019-Apr-21 08:00N 37°04' W 008°40'1 3.0
2019-Apr-21 07:31N 37°04' W 008°38'2 3.3
2019-Apr-21 07:01N 37°05' W 008°36'2 4.8
2019-Apr-21 06:30N 37°04' W 008°33'2 3.2
2019-Apr-21 06:01N 37°03' W 008°33'1 3.0
2019-Apr-21 05:31N 37°01' W 008°33'3 6.0
2019-Apr-21 05:00N 36°58' W 008°33'2 4.8
2019-Apr-21 04:31N 36°56' W 008°33'1 2.5
2019-Apr-21 04:01N 36°55' W 008°33'2 4.9
2019-Apr-21 03:30N 36°52' W 008°33'3 5.7
2019-Apr-21 03:00N 36°50' W 008°30'3 4.9
2019-Apr-21 02:23N 36°54' W 008°30'3 4.6
2019-Apr-21 01:45N 36°56' W 008°30'1 3.0
2019-Apr-21 01:30N 36°57' W 008°30'3 6.7
2019-Apr-21 01:00N 37°00' W 008°30'3 5.0
2019-Apr-21 00:30N 37°03' W 008°30'2 3.1
2019-Apr-21 00:01N 37°03' W 008°28'2 3.2
2019-Apr-20 23:31N 37°02' W 008°27'3 4.9
2019-Apr-20 22:59N 36°59' W 008°27'3 6.3
2019-Apr-20 22:31N 36°56' W 008°26'1 2.8
2019-Apr-20 22:00N 36°55' W 008°27'2 3.7
2019-Apr-20 21:24N 36°53' W 008°27'2 6.1
2019-Apr-20 21:00N 36°50' W 008°27'1 2.8
2019-Apr-20 20:31N 36°50' W 008°25'5 3.4
2019-Apr-20 18:57N 36°55' W 008°23'3 5.6
2019-Apr-20 18:24N 36°58' W 008°24'1 2.9
2019-Apr-20 18:00N 36°59' W 008°24'2 5.0
2019-Apr-20 17:30N 37°02' W 008°23'3 5.5
2019-Apr-20 17:00N 37°01' W 008°20'2 4.0
2019-Apr-20 16:30N 36°59' W 008°20'1 3.0
2019-Apr-20 16:00N 36°57' W 008°20'3 5.3
2019-Apr-20 15:31N 36°54' W 008°20'3 5.3
2019-Apr-20 15:00N 36°52' W 008°20'2 3.1
2019-Apr-20 14:27N 36°50' W 008°20'1 1.5
2019-Apr-20 13:59N 36°49' W 008°20'3 3.0
2019-Apr-20 12:56N 36°52' W 008°17'2 3.6
2019-Apr-20 12:28N 36°53' W 008°17'2 3.8
2019-Apr-20 11:59N 36°55' W 008°17'3 6.2
2019-Apr-20 11:31N 36°58' W 008°17'2 4.6
2019-Apr-20 11:01N 37°00' W 008°17'1 2.8
2019-Apr-20 10:30N 37°01' W 008°16'2 3.7
2019-Apr-20 10:00N 37°01' W 008°14'3 5.6
2019-Apr-20 09:30N 36°58' W 008°14'2 4.9
2019-Apr-20 09:01N 36°56' W 008°14'1 2.0
2019-Apr-20 08:31N 36°55' W 008°14'3 6.2
2019-Apr-20 08:00N 36°52' W 008°14'1 2.1
2019-Apr-20 07:30N 36°51' W 008°14'2 3.4
2019-Apr-20 06:59N 36°49' W 008°14'3 2.8
2019-Apr-20 05:57N 36°51' W 008°11'2 4.1
2019-Apr-20 05:30N 36°53' W 008°11'2 4.2
2019-Apr-20 05:00N 36°55' W 008°11'3 5.3
2019-Apr-20 04:29N 36°58' W 008°10'3 6.8
2019-Apr-20 04:00N 37°01' W 008°10'2 4.0
2019-Apr-20 03:30N 37°00' W 008°08'3 4.5
2019-Apr-20 02:45N 36°57' W 008°07'0 1.1
2019-Apr-20 02:30N 36°57' W 008°07'3 6.0
2019-Apr-20 02:00N 36°54' W 008°07'1 2.1
2019-Apr-20 01:29N 36°53' W 008°06'2 1.5
2019-Apr-20 00:16N 36°52' W 008°07'2 6.9
2019-Apr-19 23:57N 36°49' W 008°07'0 0.1
2019-Apr-19 23:30N 36°49' W 008°07'3 3.6
2019-Apr-19 22:43N 36°51' W 008°04'1 6.2
2019-Apr-19 22:29N 36°51' W 008°02'1 1.7
2019-Apr-19 21:53N 36°51' W 008°01'5 3.5
2019-Apr-19 20:23N 36°55' W 008°04'3 1.4
2019-Apr-19 18:01N 36°59' W 008°03'0 0.5
2019-Apr-19 17:59N 36°59' W 008°03'20 0.6
2019-Apr-18 09:39N 37°04' W 008°27'1 9.2
2019-Apr-18 09:30N 37°04' W 008°29'3 5.8
2019-Apr-18 08:58N 37°07' W 008°32'1 1.0
2019-Apr-18 08:25N 37°07' W 008°32'  
2019-Apr-14 13:57N 36°37' W 008°04'120 4.3
2019-Apr-13 09:54N 38°14' W 009°34'2 5.3
2019-Apr-13 09:29N 38°14' W 009°36'0 0.7
2019-Apr-13 08:56N 38°14' W 009°36'1 1.3
2019-Apr-13 08:30N 38°14' W 009°35'1 1.5
2019-Apr-13 07:52N 38°13' W 009°35'  

Dump ship's entire track history